createdAt,value
2018-02-25T00:08:07.693Z,3.08
2018-02-25T00:18:09.803Z,3.08
2018-02-25T00:28:06.889Z,3.07
2018-02-25T00:38:00.188Z,3.07
2018-02-25T00:47:59.847Z,3.06
2018-02-25T00:58:28.159Z,2.93
2018-02-25T01:08:21.979Z,3.05
2018-02-25T01:18:53.042Z,2.91
2018-02-25T13:44:53.321Z,3.48
2018-02-25T13:54:19.560Z,3.43
2018-02-25T14:03:49.176Z,3.42
2018-02-25T14:13:13.101Z,3.48
2018-02-25T14:22:37.142Z,3.50
2018-02-25T14:32:08.275Z,3.46
2018-02-25T14:41:35.514Z,3.42
2018-02-25T14:51:07.865Z,3.39
2018-02-25T15:00:43.082Z,3.36
2018-02-25T15:10:16.073Z,3.37
2018-02-25T15:19:50.817Z,3.39
2018-02-25T15:29:26.131Z,3.37
2018-02-25T15:39:06.436Z,3.37
2018-02-25T15:48:38.005Z,3.36
2018-02-25T15:58:09.244Z,3.39
2018-02-25T16:07:40.768Z,3.38
2018-02-25T16:17:11.730Z,3.37
2018-02-25T16:26:38.591Z,3.36
2018-02-25T16:36:14.055Z,3.34
2018-02-25T16:45:49.748Z,3.34
2018-02-25T16:55:25.489Z,3.34
2018-02-25T17:05:00.991Z,3.33
2018-02-25T17:14:55.859Z,3.33
2018-02-25T17:24:51.807Z,3.32
2018-02-25T17:34:41.919Z,3.31
2018-02-25T17:44:36.472Z,3.31
2018-02-25T17:54:33.678Z,3.30
2018-02-25T18:04:29.836Z,3.30
2018-02-25T18:14:26.694Z,3.30
2018-02-25T18:24:22.696Z,3.29
2018-02-25T18:34:17.560Z,3.29
2018-02-25T18:44:11.500Z,3.28
2018-02-25T18:54:06.500Z,3.28
2018-02-25T19:04:00.395Z,3.28
2018-02-25T19:13:57.141Z,3.27
2018-02-25T19:23:53.894Z,3.27
2018-02-25T19:33:46.925Z,3.26
2018-02-25T19:43:41.569Z,3.26
2018-02-25T19:53:36.343Z,3.26
2018-02-25T20:03:29.129Z,3.26
2018-02-25T20:13:22.388Z,3.25
2018-02-25T20:23:16.265Z,3.25
2018-02-25T20:33:12.926Z,3.25
2018-02-25T20:43:09.653Z,3.25
2018-02-25T20:53:07.042Z,3.25
2018-02-25T21:03:03.307Z,3.24
2018-02-25T21:12:56.856Z,3.24
2018-02-25T21:22:53.167Z,3.23
2018-02-25T21:32:50.399Z,3.23
2018-02-25T21:42:48.730Z,3.23
2018-02-25T21:52:46.467Z,3.22
2018-02-25T22:02:45.070Z,3.22
2018-02-25T22:12:42.706Z,3.22
2018-02-25T22:22:41.651Z,3.22
2018-02-25T22:32:37.171Z,3.21
2018-02-25T22:42:35.661Z,3.21
2018-02-25T22:52:33.702Z,3.21
2018-02-25T23:02:30.587Z,3.21
2018-02-25T23:12:27.615Z,3.20
2018-02-25T23:22:26.114Z,3.20
2018-02-25T23:32:23.519Z,3.19
2018-02-25T23:42:21.673Z,3.19
2018-02-25T23:52:20.709Z,3.19
